Time,TemperatureF,DewpointF,PressureIn,WindDirection,WindDirectionDegrees,WindSpeedMPH,WindSpeedGustMPH,Humidity,HourlyPrecipIn,Conditions,Clouds,dailyrainin,SoftwareType,DateUTC
2013-03-05 00:00:00,31.0,23.0,30.12,West,270,2.0,10.0,72,0.00,,,-99.99,Weather View 32 v60,2013-03-05 05:00:00,
2013-03-05 00:05:00,31.0,22.7,30.12,WNW,292,3.0,10.0,71,0.00,,,-99.99,Weather View 32 v60,2013-03-05 05:05:00,
2013-03-05 00:10:00,31.0,22.7,30.12,NW,315,0.0,10.0,71,0.00,,,-99.99,Weather View 32 v60,2013-03-05 05:10:00,
2013-03-05 00:15:00,31.0,23.0,30.12,WSW,247,0.0,10.0,72,0.00,,,-99.99,Weather View 32 v60,2013-03-05 05:15:00,
2013-03-05 00:20:00,31.0,22.7,30.12,WNW,292,4.0,10.0,71,0.00,,,-99.99,Weather View 32 v60,2013-03-05 05:20:00,
2013-03-05 00:25:00,31.0,23.0,30.12,SW,225,5.0,10.0,72,0.00,,,-99.99,Weather View 32 v60,2013-03-05 05:25:00,
2013-03-05 00:30:00,30.0,22.4,30.12,West,270,1.0,10.0,73,0.00,,,-99.99,Weather View 32 v60,2013-03-05 05:30:00,
2013-03-05 00:35:00,30.0,22.1,30.12,WSW,247,0.0,12.0,72,0.00,,,-99.99,Weather View 32 v60,2013-03-05 05:35:00,
2013-03-05 00:40:00,30.0,22.1,30.12,SW,225,1.0,12.0,72,0.00,,,-99.99,Weather View 32 v60,2013-03-05 05:40:00,
2013-03-05 00:45:00,30.0,22.4,30.12,WSW,247,1.0,12.0,73,0.00,,,-99.99,Weather View 32 v60,2013-03-05 05:45:00,
2013-03-05 00:50:00,30.0,22.4,30.12,West,270,3.0,12.0,73,0.00,,,-99.99,Weather View 32 v60,2013-03-05 05:50:00,
2013-03-05 00:55:00,30.0,22.4,30.12,West,270,0.0,12.0,73,0.00,,,-99.99,Weather View 32 v60,2013-03-05 05:55:00,
2013-03-05 01:00:00,30.0,22.4,30.11,WSW,247,2.0,12.0,73,0.00,,,-99.99,Weather View 32 v60,2013-03-05 06:00:00,
2013-03-05 01:05:00,30.0,22.4,30.11,West,270,4.0,12.0,73,0.00,,,-99.99,Weather View 32 v60,2013-03-05 06:05:00,
2013-03-05 01:10:00,30.0,22.7,30.11,WNW,292,0.0,12.0,74,0.00,,,-99.99,Weather View 32 v60,2013-03-05 06:10:00,
2013-03-05 01:15:00,30.0,22.7,30.11,WNW,292,0.0,12.0,74,0.00,,,-99.99,Weather View 32 v60,2013-03-05 06:15:00,
2013-03-05 01:20:00,30.0,22.4,30.10,West,270,4.0,12.0,73,0.00,,,-99.99,Weather View 32 v60,2013-03-05 06:20:00,
2013-03-05 01:25:00,30.0,22.7,30.10,WSW,247,2.0,12.0,74,0.00,,,-99.99,Weather View 32 v60,2013-03-05 06:25:00,
2013-03-05 01:30:00,30.0,22.7,30.11,NNW,337,6.0,12.0,74,0.00,,,-99.99,Weather View 32 v60,2013-03-05 06:30:00,
2013-03-05 01:35:00,29.0,21.8,30.11,West,270,1.0,12.0,74,0.00,,,-99.99,Weather View 32 v60,2013-03-05 06:35:00,
2013-03-05 01:40:00,29.0,22.1,30.11,WSW,247,4.0,12.0,75,0.00,,,-99.99,Weather View 32 v60,2013-03-05 06:40:00,
2013-03-05 01:45:00,29.0,22.1,30.11,West,270,2.0,12.0,75,0.00,,,-99.99,Weather View 32 v60,2013-03-05 06:45:00,
2013-03-05 01:50:00,29.0,22.1,30.11,West,270,5.0,12.0,75,0.00,,,-99.99,Weather View 32 v60,2013-03-05 06:50:00,
2013-03-05 01:55:00,29.0,22.4,30.11,West,270,2.0,12.0,76,0.00,,,-99.99,Weather View 32 v60,2013-03-05 06:55:00,
2013-03-05 02:00:00,29.0,22.4,30.11,West,270,5.0,12.0,76,0.00,,,-99.99,Weather View 32 v60,2013-03-05 07:00:00,
2013-03-05 02:05:00,29.0,22.7,30.11,West,270,0.0,12.0,77,0.00,,,-99.99,Weather View 32 v60,2013-03-05 07:05:00,
2013-03-05 02:10:00,28.0,21.7,30.12,WSW,247,0.0,12.0,77,0.00,,,-99.99,Weather View 32 v60,2013-03-05 07:10:00,
2013-03-05 02:15:00,28.0,21.7,30.12,SW,225,0.0,12.0,77,0.00,,,-99.99,Weather View 32 v60,2013-03-05 07:15:00,
2013-03-05 02:20:00,28.0,21.7,30.12,WNW,292,4.0,12.0,77,0.00,,,-99.99,Weather View 32 v60,2013-03-05 07:20:00,
2013-03-05 02:25:00,28.0,22.0,30.12,WSW,247,0.0,12.0,78,0.00,,,-99.99,Weather View 32 v60,2013-03-05 07:25:00,
2013-03-05 02:30:00,28.0,21.7,30.12,West,270,4.0,10.0,77,0.00,,,-99.99,Weather View 32 v60,2013-03-05 07:30:00,
2013-03-05 02:35:00,28.0,21.7,30.12,WNW,292,4.0,10.0,77,0.00,,,-99.99,Weather View 32 v60,2013-03-05 07:35:00,
2013-03-05 02:40:00,28.0,21.7,30.12,West,270,0.0,10.0,77,0.00,,,-99.99,Weather View 32 v60,2013-03-05 07:40:00,
2013-03-05 02:45:00,29.0,22.7,30.12,WSW,247,0.0,9.0,77,0.00,,,-99.99,Weather View 32 v60,2013-03-05 07:45:00,
2013-03-05 02:50:00,29.0,22.7,30.12,SW,225,5.0,9.0,77,0.00,,,-99.99,Weather View 32 v60,2013-03-05 07:50:00,
2013-03-05 02:55:00,29.0,22.7,30.12,NNE,22,2.0,9.0,77,0.00,,,-99.99,Weather View 32 v60,2013-03-05 07:55:00,
2013-03-05 03:00:00,29.0,22.7,30.12,West,270,2.0,9.0,77,0.00,,,-99.99,Weather View 32 v60,2013-03-05 08:00:00,
2013-03-05 03:05:00,29.0,23.0,30.12,West,270,0.0,9.0,78,0.00,,,-99.99,Weather View 32 v60,2013-03-05 08:05:00,
2013-03-05 03:10:00,29.0,22.7,30.13,NNE,22,0.0,9.0,77,0.00,,,-99.99,Weather View 32 v60,2013-03-05 08:10:00,
2013-03-05 03:15:00,29.0,22.7,30.13,WSW,247,0.0,9.0,77,0.00,,,-99.99,Weather View 32 v60,2013-03-05 08:15:00,
2013-03-05 03:20:00,29.0,22.7,30.13,WSW,247,0.0,9.0,77,0.00,,,-99.99,Weather View 32 v60,2013-03-05 08:20:00,
2013-03-05 03:25:00,29.0,22.7,30.13,West,270,0.0,9.0,77,0.00,,,-99.99,Weather View 32 v60,2013-03-05 08:25:00,
2013-03-05 03:30:00,29.0,22.4,30.14,WSW,247,0.0,9.0,76,0.00,,,-99.99,Weather View 32 v60,2013-03-05 08:30:00,
2013-03-05 03:35:00,29.0,22.4,30.14,NW,315,0.0,9.0,76,0.00,,,-99.99,Weather View 32 v60,2013-03-05 08:35:00,
2013-03-05 03:40:00,29.0,22.1,30.14,SW,225,0.0,9.0,75,0.00,,,-99.99,Weather View 32 v60,2013-03-05 08:40:00,
2013-03-05 03:45:00,29.0,22.7,30.14,SW,225,0.0,9.0,77,0.00,,,-99.99,Weather View 32 v60,2013-03-05 08:45:00,
2013-03-05 03:50:00,29.0,22.7,30.14,West,270,0.0,9.0,77,0.00,,,-99.99,Weather View 32 v60,2013-03-05 08:50:00,
2013-03-05 03:55:00,29.0,22.7,30.14,WSW,247,0.0,9.0,77,0.00,,,-99.99,Weather View 32 v60,2013-03-05 08:55:00,
2013-03-05 04:00:00,29.0,22.7,30.14,West,270,3.0,9.0,77,0.00,,,-99.99,Weather View 32 v60,2013-03-05 09:00:00,
2013-03-05 04:05:00,29.0,22.7,30.14,WSW,247,5.0,10.0,77,0.00,,,-99.99,Weather View 32 v60,2013-03-05 09:05:00,
2013-03-05 04:10:00,29.0,23.0,30.14,WSW,247,3.0,10.0,78,0.00,,,-99.99,Weather View 32 v60,2013-03-05 09:10:00,
2013-03-05 04:15:00,29.0,23.0,30.14,WSW,247,2.0,10.0,78,0.00,,,-99.99,Weather View 32 v60,2013-03-05 09:15:00,
2013-03-05 04:20:00,29.0,23.0,30.14,WSW,247,0.0,10.0,78,0.00,,,-99.99,Weather View 32 v60,2013-03-05 09:20:00,
2013-03-05 04:25:00,29.0,23.3,30.14,SW,225,0.0,10.0,79,0.00,,,-99.99,Weather View 32 v60,2013-03-05 09:25:00,
2013-03-05 04:30:00,29.0,23.3,30.15,West,270,0.0,10.0,79,0.00,,,-99.99,Weather View 32 v60,2013-03-05 09:30:00,
2013-03-05 04:35:00,29.0,23.0,30.15,WNW,292,3.0,10.0,78,0.00,,,-99.99,Weather View 32 v60,2013-03-05 09:35:00,
2013-03-05 04:40:00,29.0,22.7,30.15,West,270,4.0,10.0,77,0.00,,,-99.99,Weather View 32 v60,2013-03-05 09:40:00,
2013-03-05 04:45:00,29.0,23.0,30.15,West,270,0.0,10.0,78,0.00,,,-99.99,Weather View 32 v60,2013-03-05 09:45:00,
2013-03-05 04:50:00,29.0,23.0,30.15,WSW,247,3.0,10.0,78,0.00,,,-99.99,Weather View 32 v60,2013-03-05 09:50:00,
2013-03-05 05:00:00,29.0,23.6,30.16,NW,315,0.0,10.0,80,0.00,,,-99.99,Weather View 32 v60,2013-03-05 10:00:00,
2013-03-05 05:10:00,28.0,22.3,30.16,SW,225,0.0,8.0,79,0.00,,,-99.99,Weather View 32 v60,2013-03-05 10:10:00,
2013-03-05 05:20:00,28.0,22.3,30.16,SW,225,0.0,8.0,79,0.00,,,-99.99,Weather View 32 v60,2013-03-05 10:20:00,
2013-03-05 05:40:00,28.0,23.2,30.16,WSW,247,1.0,8.0,82,0.00,,,-99.99,Weather View 32 v60,2013-03-05 10:40:00,
2013-03-05 05:55:00,29.0,23.0,30.15,SW,225,0.0,10.0,78,0.00,,,-99.99,Weather View 32 v60,2013-03-05 10:55:00,
2013-03-05 06:04:00,29.0,23.3,30.16,SW,225,2.0,10.0,79,0.00,,,-99.99,Weather View 32 v60,2013-03-05 11:04:00,
2013-03-05 06:15:00,28.0,22.6,30.16,SW,225,0.0,8.0,80,0.00,,,-99.99,Weather View 32 v60,2013-03-05 11:15:00,
2013-03-05 06:25:00,28.0,22.9,30.16,WNW,292,0.0,8.0,81,0.00,,,-99.99,Weather View 32 v60,2013-03-05 11:25:00,
2013-03-05 06:30:00,28.0,22.9,30.16,NW,315,0.0,8.0,81,0.00,,,-99.99,Weather View 32 v60,2013-03-05 11:30:00,
2013-03-05 06:35:00,28.0,23.2,30.16,WSW,247,0.0,8.0,82,0.00,,,-99.99,Weather View 32 v60,2013-03-05 11:35:00,
2013-03-05 06:45:00,28.0,23.2,30.16,WNW,292,1.0,7.0,82,0.00,,,-99.99,Weather View 32 v60,2013-03-05 11:45:00,
2013-03-05 06:50:00,28.0,23.2,30.17,WSW,247,3.0,7.0,82,0.00,,,-99.99,Weather View 32 v60,2013-03-05 11:50:00,
2013-03-05 06:55:00,28.0,22.6,30.17,West,270,4.0,7.0,80,0.00,,,-99.99,Weather View 32 v60,2013-03-05 11:55:00,
2013-03-05 07:05:00,28.0,22.6,30.17,NW,315,0.0,10.0,80,0.00,,,-99.99,Weather View 32 v60,2013-03-05 12:05:00,
2013-03-05 07:10:00,28.0,22.6,30.16,WNW,292,4.0,10.0,80,0.00,,,-99.99,Weather View 32 v60,2013-03-05 12:10:00,
2013-03-05 07:20:00,28.0,22.6,30.16,NE,45,2.0,10.0,80,0.00,,,-99.99,Weather View 32 v60,2013-03-05 12:20:00,
2013-03-05 07:25:00,28.0,22.3,30.16,NNW,337,0.0,10.0,79,0.00,,,-99.99,Weather View 32 v60,2013-03-05 12:25:00,
2013-03-05 07:30:00,29.0,23.0,30.17,WNW,292,3.0,10.0,78,0.00,,,-99.99,Weather View 32 v60,2013-03-05 12:30:00,
2013-03-05 07:34:00,29.0,23.3,30.17,West,270,4.0,10.0,79,0.00,,,-99.99,Weather View 32 v60,2013-03-05 12:34:00,
2013-03-05 07:40:00,30.0,24.0,30.17,West,270,2.0,10.0,78,0.00,,,-99.99,Weather View 32 v60,2013-03-05 12:40:00,
2013-03-05 07:45:00,30.0,23.7,30.17,North,360,0.0,10.0,77,0.00,,,-99.99,Weather View 32 v60,2013-03-05 12:45:00,
2013-03-05 07:51:00,30.0,23.0,30.16,West,270,3.0,10.0,75,0.00,,,-99.99,Weather View 32 v60,2013-03-05 12:51:00,
2013-03-05 08:00:00,32.0,24.6,30.17,SW,225,0.0,10.0,74,0.00,,,-99.99,Weather View 32 v60,2013-03-05 13:00:00,
2013-03-05 08:10:00,33.0,23.6,30.17,WNW,292,0.0,10.0,68,0.00,,,-99.99,Weather View 32 v60,2013-03-05 13:10:00,
2013-03-05 08:20:00,33.0,22.9,30.16,WSW,247,6.0,11.0,66,0.00,,,-99.99,Weather View 32 v60,2013-03-05 13:20:00,
2013-03-05 08:30:00,34.0,23.5,30.16,West,270,4.0,11.0,65,0.00,,,-99.99,Weather View 32 v60,2013-03-05 13:30:00,
2013-03-05 08:35:00,34.0,23.1,30.16,NW,315,0.0,11.0,64,0.00,,,-99.99,Weather View 32 v60,2013-03-05 13:35:00,
2013-03-05 08:40:00,36.0,24.6,30.16,NW,315,4.0,11.0,63,0.00,,,-99.99,Weather View 32 v60,2013-03-05 13:40:00,
2013-03-05 08:50:00,35.0,23.7,30.15,NW,315,0.0,11.0,63,0.00,,,-99.99,Weather View 32 v60,2013-03-05 13:50:00,
2013-03-05 08:55:00,35.0,23.3,30.15,SW,225,7.0,11.0,62,0.00,,,-99.99,Weather View 32 v60,2013-03-05 13:55:00,
2013-03-05 09:05:00,37.0,24.8,30.16,WNW,292,3.0,11.0,61,0.00,,,-99.99,Weather View 32 v60,2013-03-05 14:05:00,
2013-03-05 09:10:00,38.0,24.9,30.15,NW,315,5.0,11.0,59,0.00,,,-99.99,Weather View 32 v60,2013-03-05 14:10:00,
2013-03-05 09:20:00,37.0,23.2,30.15,WSW,247,6.0,11.0,57,0.00,,,-99.99,Weather View 32 v60,2013-03-05 14:20:00,
2013-03-05 09:25:00,36.0,24.2,30.15,NNW,337,0.0,11.0,62,0.00,,,-99.99,Weather View 32 v60,2013-03-05 14:25:00,
2013-03-05 09:35:00,37.0,25.2,30.15,WSW,247,2.0,11.0,62,0.00,,,-99.99,Weather View 32 v60,2013-03-05 14:35:00,
2013-03-05 09:40:00,38.0,24.5,30.15,SW,225,0.0,11.0,58,0.00,,,-99.99,Weather View 32 v60,2013-03-05 14:40:00,
2013-03-05 09:50:00,39.0,25.9,30.15,NW,315,0.0,11.0,59,0.00,,,-99.99,Weather View 32 v60,2013-03-05 14:50:00,
2013-03-05 10:00:00,39.0,24.2,30.14,WSW,247,4.0,10.0,55,0.00,,,-99.99,Weather View 32 v60,2013-03-05 15:00:00,
2013-03-05 10:05:00,38.0,24.5,30.14,West,270,0.0,10.0,58,0.00,,,-99.99,Weather View 32 v60,2013-03-05 15:05:00,
2013-03-05 10:15:00,39.0,25.0,30.14,NNW,337,0.0,10.0,57,0.00,,,-99.99,Weather View 32 v60,2013-03-05 15:15:00,
2013-03-05 10:25:00,40.0,25.5,30.14,NE,45,4.0,10.0,56,0.00,,,-99.99,Weather View 32 v60,2013-03-05 15:25:00,
2013-03-05 10:30:00,40.0,25.5,30.14,West,270,6.0,10.0,56,0.00,,,-99.99,Weather View 32 v60,2013-03-05 15:30:00,
2013-03-05 10:35:00,40.0,25.1,30.14,NW,315,5.0,10.0,55,0.00,,,-99.99,Weather View 32 v60,2013-03-05 15:35:00,
2013-03-05 10:45:00,39.0,23.7,30.14,SW,225,5.0,10.0,54,0.00,,,-99.99,Weather View 32 v60,2013-03-05 15:45:00,
2013-03-05 10:53:00,40.0,24.7,30.13,NW,315,5.0,10.0,54,0.00,,,-99.99,Weather View 32 v60,2013-03-05 15:53:00,
2013-03-05 11:00:00,41.0,26.5,30.13,WSW,247,2.0,10.0,56,0.00,,,-99.99,Weather View 32 v60,2013-03-05 16:00:00,
2013-03-05 11:10:00,41.0,23.8,30.13,NW,315,6.0,10.0,50,0.00,,,-99.99,Weather View 32 v60,2013-03-05 16:10:00,
2013-03-05 11:15:00,41.0,24.7,30.13,NE,45,6.0,10.0,52,0.00,,,-99.99,Weather View 32 v60,2013-03-05 16:15:00,
2013-03-05 11:25:00,42.0,26.5,30.13,North,360,3.0,10.0,54,0.00,,,-99.99,Weather View 32 v60,2013-03-05 16:25:00,
2013-03-05 11:35:00,41.0,24.7,30.12,NNE,22,5.0,12.0,52,0.00,,,-99.99,Weather View 32 v60,2013-03-05 16:35:00,
2013-03-05 11:40:00,41.0,24.2,30.12,NNE,22,4.0,12.0,51,0.00,,,-99.99,Weather View 32 v60,2013-03-05 16:40:00,
2013-03-05 11:50:00,42.0,24.7,30.13,NW,315,1.0,12.0,50,0.00,,,-99.99,Weather View 32 v60,2013-03-05 16:50:00,
2013-03-05 11:55:00,43.0,26.1,30.13,NE,45,1.0,12.0,51,0.00,,,-99.99,Weather View 32 v60,2013-03-05 16:55:00,
2013-03-05 12:04:00,43.0,25.6,30.12,NNE,22,5.0,12.0,50,0.00,,,-99.99,Weather View 32 v60,2013-03-05 17:04:00,
2013-03-05 12:10:00,43.0,26.1,30.12,North,360,1.0,12.0,51,0.00,,,-99.99,Weather View 32 v60,2013-03-05 17:10:00,
2013-03-05 12:15:00,43.0,24.1,30.12,WNW,292,0.0,12.0,47,0.00,,,-99.99,Weather View 32 v60,2013-03-05 17:15:00,
2013-03-05 12:25:00,43.0,25.1,30.11,NNE,22,3.0,12.0,49,0.00,,,-99.99,Weather View 32 v60,2013-03-05 17:25:00,
2013-03-05 12:30:00,43.0,24.6,30.11,East,90,0.0,12.0,48,0.00,,,-99.99,Weather View 32 v60,2013-03-05 17:30:00,
2013-03-05 12:40:00,44.0,26.0,30.11,WNW,292,1.0,11.0,49,0.00,,,-99.99,Weather View 32 v60,2013-03-05 17:40:00,
2013-03-05 12:50:00,45.0,27.5,30.10,NNE,22,0.0,11.0,50,0.00,,,-99.99,Weather View 32 v60,2013-03-05 17:50:00,
2013-03-05 12:55:00,46.0,27.9,30.10,NW,315,3.0,11.0,49,0.00,,,-99.99,Weather View 32 v60,2013-03-05 17:55:00,
2013-03-05 13:00:00,47.0,27.8,30.10,NNW,337,4.0,11.0,47,0.00,,,-99.99,Weather View 32 v60,2013-03-05 18:00:00,
2013-03-05 13:10:00,46.0,27.4,30.10,North,360,0.0,11.0,48,0.00,,,-99.99,Weather View 32 v60,2013-03-05 18:10:00,
2013-03-05 13:20:00,46.0,26.9,30.09,NE,45,3.0,9.0,47,0.00,,,-99.99,Weather View 32 v60,2013-03-05 18:20:00,
2013-03-05 13:25:00,46.0,26.9,30.09,NNE,22,0.0,9.0,47,0.00,,,-99.99,Weather View 32 v60,2013-03-05 18:25:00,
2013-03-05 13:35:00,45.0,25.4,30.09,ENE,67,0.0,9.0,46,0.00,,,-99.99,Weather View 32 v60,2013-03-05 18:35:00,
2013-03-05 13:40:00,46.0,26.9,30.09,NW,315,0.0,9.0,47,0.00,,,-99.99,Weather View 32 v60,2013-03-05 18:40:00,
2013-03-05 13:50:00,46.0,25.8,30.09,North,360,4.0,9.0,45,0.00,,,-99.99,Weather View 32 v60,2013-03-05 18:50:00,
2013-03-05 14:00:00,47.0,26.7,30.09,NW,315,0.0,9.0,45,0.00,,,-99.99,Weather View 32 v60,2013-03-05 19:00:00,
2013-03-05 14:10:00,47.0,26.7,30.08,NW,315,0.0,8.0,45,0.00,,,-99.99,Weather View 32 v60,2013-03-05 19:10:00,
2013-03-05 14:20:00,47.0,25.6,30.08,NW,315,0.0,8.0,43,0.00,,,-99.99,Weather View 32 v60,2013-03-05 19:20:00,
2013-03-05 14:25:00,47.0,26.2,30.08,NNW,337,0.0,8.0,44,0.00,,,-99.99,Weather View 32 v60,2013-03-05 19:25:00,
2013-03-05 14:35:00,49.0,28.0,30.08,North,360,5.0,8.0,44,0.00,,,-99.99,Weather View 32 v60,2013-03-05 19:35:00,
2013-03-05 14:40:00,48.0,26.5,30.07,NNW,337,2.0,8.0,43,0.00,,,-99.99,Weather View 32 v60,2013-03-05 19:40:00,
2013-03-05 14:45:00,48.0,27.1,30.07,NNE,22,4.0,8.0,44,0.00,,,-99.99,Weather View 32 v60,2013-03-05 19:45:00,
2013-03-05 14:55:00,47.0,25.6,30.08,North,360,4.0,8.0,43,0.00,,,-99.99,Weather View 32 v60,2013-03-05 19:55:00,
2013-03-05 15:05:00,48.0,26.5,30.07,NNE,22,0.0,7.0,43,0.00,,,-99.99,Weather View 32 v60,2013-03-05 20:05:00,
2013-03-05 15:10:00,48.0,26.0,30.07,SW,225,0.0,7.0,42,0.00,,,-99.99,Weather View 32 v60,2013-03-05 20:10:00,
2013-03-05 15:15:00,48.0,24.2,30.07,NW,315,6.0,8.0,39,0.00,,,-99.99,Weather View 32 v60,2013-03-05 20:15:00,
2013-03-05 15:25:00,48.0,25.4,30.06,WNW,292,5.0,8.0,41,0.00,,,-99.99,Weather View 32 v60,2013-03-05 20:25:00,
2013-03-05 15:30:00,47.0,25.1,30.06,WNW,292,3.0,8.0,42,0.00,,,-99.99,Weather View 32 v60,2013-03-05 20:30:00,
2013-03-05 15:35:00,47.0,25.6,30.06,NNE,22,3.0,8.0,43,0.00,,,-99.99,Weather View 32 v60,2013-03-05 20:35:00,
2013-03-05 15:40:00,48.0,26.5,30.06,WNW,292,0.0,8.0,43,0.00,,,-99.99,Weather View 32 v60,2013-03-05 20:40:00,
2013-03-05 15:50:00,47.0,25.1,30.06,NNE,22,1.0,9.0,42,0.00,,,-99.99,Weather View 32 v60,2013-03-05 20:50:00,
2013-03-05 15:55:00,47.0,25.1,30.06,NNE,22,0.0,9.0,42,0.00,,,-99.99,Weather View 32 v60,2013-03-05 20:55:00,
2013-03-05 16:04:00,47.0,23.9,30.06,NW,315,2.0,9.0,40,0.00,,,-99.99,Weather View 32 v60,2013-03-05 21:04:00,
2013-03-05 16:10:00,47.0,26.7,30.05,North,360,5.0,9.0,45,0.00,,,-99.99,Weather View 32 v60,2013-03-05 21:10:00,
2013-03-05 16:15:00,47.0,25.6,30.05,NW,315,0.0,9.0,43,0.00,,,-99.99,Weather View 32 v60,2013-03-05 21:15:00,
2013-03-05 16:25:00,47.0,26.2,30.05,North,360,0.0,9.0,44,0.00,,,-99.99,Weather View 32 v60,2013-03-05 21:25:00,
2013-03-05 16:35:00,46.0,25.8,30.04,North,360,0.0,9.0,45,0.00,,,-99.99,Weather View 32 v60,2013-03-05 21:35:00,
2013-03-05 16:40:00,45.0,24.9,30.06,North,360,0.0,9.0,45,0.00,,,-99.99,Weather View 32 v60,2013-03-05 21:40:00,
2013-03-05 16:45:00,44.0,25.0,30.06,NW,315,0.0,9.0,47,0.00,,,-99.99,Weather View 32 v60,2013-03-05 21:45:00,
2013-03-05 16:55:00,44.0,25.0,30.07,NW,315,4.0,10.0,47,0.00,,,-99.99,Weather View 32 v60,2013-03-05 21:55:00,
2013-03-05 17:00:00,43.0,23.6,30.08,North,360,0.0,10.0,46,0.00,,,-99.99,Weather View 32 v60,2013-03-05 22:00:00,
2013-03-05 17:10:00,43.0,24.1,30.08,NE,45,0.0,10.0,47,0.00,,,-99.99,Weather View 32 v60,2013-03-05 22:10:00,
2013-03-05 17:20:00,43.0,24.6,30.09,NNE,22,0.0,10.0,48,0.00,,,-99.99,Weather View 32 v60,2013-03-05 22:20:00,
2013-03-05 17:25:00,43.0,25.1,30.09,NE,45,0.0,10.0,49,0.00,,,-99.99,Weather View 32 v60,2013-03-05 22:25:00,
2013-03-05 17:30:00,42.0,24.2,30.10,East,90,0.0,10.0,49,0.00,,,-99.99,Weather View 32 v60,2013-03-05 22:30:00,
2013-03-05 17:40:00,41.0,24.2,30.09,East,90,0.0,10.0,51,0.00,,,-99.99,Weather View 32 v60,2013-03-05 22:40:00,
2013-03-05 17:50:00,40.0,23.8,30.10,East,90,0.0,5.0,52,0.00,,,-99.99,Weather View 32 v60,2013-03-05 22:50:00,
2013-03-05 17:55:00,40.0,23.8,30.10,East,90,0.0,5.0,52,0.00,,,-99.99,Weather View 32 v60,2013-03-05 22:55:00,
2013-03-05 18:00:00,40.0,24.7,30.10,East,90,0.0,5.0,54,0.00,,,-99.99,Weather View 32 v60,2013-03-05 23:00:00,
2013-03-05 18:10:00,39.0,23.7,30.11,East,90,0.0,4.0,54,0.00,,,-99.99,Weather View 32 v60,2013-03-05 23:10:00,
2013-03-05 18:20:00,38.0,24.1,30.12,East,90,0.0,3.0,57,0.00,,,-99.99,Weather View 32 v60,2013-03-05 23:20:00,
2013-03-05 18:25:00,38.0,23.7,30.12,East,90,0.0,0.0,56,0.00,,,-99.99,Weather View 32 v60,2013-03-05 23:25:00,
2013-03-05 18:30:00,38.0,23.7,30.12,East,90,0.0,0.0,56,0.00,,,-99.99,Weather View 32 v60,2013-03-05 23:30:00,
2013-03-05 18:35:00,38.0,24.1,30.12,East,90,0.0,0.0,57,0.00,,,-99.99,Weather View 32 v60,2013-03-05 23:35:00,
2013-03-05 18:45:00,37.0,23.2,30.12,East,90,0.0,0.0,57,0.00,,,-99.99,Weather View 32 v60,2013-03-05 23:45:00,
2013-03-05 18:50:00,37.0,24.0,30.13,East,90,0.0,0.0,59,0.00,,,-99.99,Weather View 32 v60,2013-03-05 23:50:00,
2013-03-05 19:00:00,36.0,23.4,30.13,East,90,0.0,0.0,60,0.00,,,-99.99,Weather View 32 v60,2013-03-06 00:00:00,
2013-03-05 19:10:00,36.0,23.8,30.12,East,90,0.0,0.0,61,0.00,,,-99.99,Weather View 32 v60,2013-03-06 00:10:00,
2013-03-05 19:15:00,36.0,23.8,30.12,East,90,0.0,0.0,61,0.00,,,-99.99,Weather View 32 v60,2013-03-06 00:15:00,
2013-03-05 19:20:00,36.0,23.8,30.12,East,90,0.0,0.0,61,0.00,,,-99.99,Weather View 32 v60,2013-03-06 00:20:00,
2013-03-05 19:25:00,35.0,23.3,30.12,East,90,0.0,0.0,62,0.00,,,-99.99,Weather View 32 v60,2013-03-06 00:25:00,
2013-03-05 19:30:00,35.0,23.3,30.12,East,90,0.0,0.0,62,0.00,,,-99.99,Weather View 32 v60,2013-03-06 00:30:00,
2013-03-05 19:35:00,35.0,23.3,30.12,East,90,0.0,0.0,62,0.00,,,-99.99,Weather View 32 v60,2013-03-06 00:35:00,
2013-03-05 19:40:00,35.0,24.0,30.12,East,90,0.0,0.0,64,0.00,,,-99.99,Weather View 32 v60,2013-03-06 00:40:00,
2013-03-05 19:50:00,35.0,24.0,30.12,East,90,0.0,0.0,64,0.00,,,-99.99,Weather View 32 v60,2013-03-06 00:50:00,
2013-03-05 19:55:00,35.0,24.0,30.12,East,90,0.0,0.0,64,0.00,,,-99.99,Weather View 32 v60,2013-03-06 00:55:00,
2013-03-05 20:00:00,35.0,24.8,30.12,East,90,0.0,0.0,66,0.00,,,-99.99,Weather View 32 v60,2013-03-06 01:00:00,
2013-03-05 20:05:00,36.0,25.7,30.12,NE,45,4.0,5.0,66,0.00,,,-99.99,Weather View 32 v60,2013-03-06 01:05:00,
2013-03-05 20:15:00,36.0,25.7,30.12,ENE,67,0.0,5.0,66,0.00,,,-99.99,Weather View 32 v60,2013-03-06 01:15:00,
2013-03-05 20:25:00,36.0,26.1,30.12,East,90,0.0,5.0,67,0.00,,,-99.99,Weather View 32 v60,2013-03-06 01:25:00,
2013-03-05 20:30:00,36.0,26.1,30.12,East,90,0.0,5.0,67,0.00,,,-99.99,Weather View 32 v60,2013-03-06 01:30:00,
2013-03-05 20:35:00,35.0,25.1,30.12,East,90,0.0,5.0,67,0.00,,,-99.99,Weather View 32 v60,2013-03-06 01:35:00,
2013-03-05 20:45:00,35.0,25.9,30.13,East,90,0.0,5.0,69,0.00,,,-99.99,Weather View 32 v60,2013-03-06 01:45:00,
2013-03-05 20:55:00,35.0,26.5,30.13,East,90,0.0,5.0,71,0.00,,,-99.99,Weather View 32 v60,2013-03-06 01:55:00,
2013-03-05 21:05:00,35.0,26.5,30.14,East,90,0.0,4.0,71,0.00,,,-99.99,Weather View 32 v60,2013-03-06 02:05:00,
2013-03-05 21:15:00,36.0,27.5,30.13,NE,45,0.0,3.0,71,0.00,,,-99.99,Weather View 32 v60,2013-03-06 02:15:00,
2013-03-05 21:20:00,36.0,27.5,30.12,NE,45,0.0,3.0,71,0.00,,,-99.99,Weather View 32 v60,2013-03-06 02:20:00,
2013-03-05 21:30:00,35.0,26.5,30.12,East,90,0.0,3.0,71,0.00,,,-99.99,Weather View 32 v60,2013-03-06 02:30:00,
2013-03-05 21:35:00,35.0,26.5,30.12,East,90,0.0,3.0,71,0.00,,,-99.99,Weather View 32 v60,2013-03-06 02:35:00,
2013-03-05 21:40:00,35.0,26.5,30.12,East,90,0.0,3.0,71,0.00,,,-99.99,Weather View 32 v60,2013-03-06 02:40:00,
2013-03-05 21:45:00,35.0,26.5,30.12,East,90,0.0,3.0,71,0.00,,,-99.99,Weather View 32 v60,2013-03-06 02:45:00,
2013-03-05 21:55:00,34.0,26.3,30.12,ENE,67,0.0,3.0,73,0.00,,,-99.99,Weather View 32 v60,2013-03-06 02:55:00,
2013-03-05 22:00:00,34.0,26.3,30.12,ENE,67,0.0,3.0,73,0.00,,,-99.99,Weather View 32 v60,2013-03-06 03:00:00,
2013-03-05 22:05:00,34.0,26.3,30.12,ENE,67,0.0,3.0,73,0.00,,,-99.99,Weather View 32 v60,2013-03-06 03:05:00,
2013-03-05 22:10:00,33.0,25.6,30.12,ENE,67,0.0,0.0,74,0.00,,,-99.99,Weather View 32 v60,2013-03-06 03:10:00,
2013-03-05 22:15:00,33.0,25.6,30.12,ENE,67,0.0,0.0,74,0.00,,,-99.99,Weather View 32 v60,2013-03-06 03:15:00,
2013-03-05 22:20:00,33.0,25.6,30.12,ENE,67,0.0,0.0,74,0.00,,,-99.99,Weather View 32 v60,2013-03-06 03:20:00,
2013-03-05 22:30:00,32.0,25.9,30.12,ENE,67,0.0,0.0,78,0.00,,,-99.99,Weather View 32 v60,2013-03-06 03:30:00,
2013-03-05 22:35:00,32.0,26.2,30.12,ENE,67,0.0,0.0,79,0.00,,,-99.99,Weather View 32 v60,2013-03-06 03:35:00,
2013-03-05 22:40:00,32.0,26.2,30.12,ENE,67,0.0,0.0,79,0.00,,,-99.99,Weather View 32 v60,2013-03-06 03:40:00,
2013-03-05 22:45:00,32.0,26.5,30.12,ENE,67,0.0,0.0,80,0.00,,,-99.99,Weather View 32 v60,2013-03-06 03:45:00,
2013-03-05 22:50:00,32.0,26.5,30.11,ENE,67,0.0,0.0,80,0.00,,,-99.99,Weather View 32 v60,2013-03-06 03:50:00,
2013-03-05 22:55:00,32.0,26.5,30.11,NNE,22,0.0,0.0,80,0.00,,,-99.99,Weather View 32 v60,2013-03-06 03:55:00,
2013-03-05 23:05:00,32.0,26.8,30.11,NNE,22,0.0,0.0,81,0.00,,,-99.99,Weather View 32 v60,2013-03-06 04:05:00,
2013-03-05 23:10:00,32.0,27.1,30.11,NNE,22,0.0,0.0,82,0.00,,,-99.99,Weather View 32 v60,2013-03-06 04:10:00,
2013-03-05 23:15:00,32.0,27.1,30.11,NNE,22,0.0,0.0,82,0.00,,,-99.99,Weather View 32 v60,2013-03-06 04:15:00,
2013-03-05 23:20:00,31.0,27.9,30.09,NNE,22,0.0,0.0,88,0.00,,,-99.99,Weather View 32 v60,2013-03-06 04:20:00,
2013-03-05 23:25:00,32.0,27.1,30.10,NNE,22,0.0,0.0,82,0.00,,,-99.99,Weather View 32 v60,2013-03-06 04:25:00,
2013-03-05 23:30:00,31.0,26.4,30.10,NNE,22,0.0,0.0,83,0.00,,,-99.99,Weather View 32 v60,2013-03-06 04:30:00,
2013-03-05 23:35:00,31.0,26.4,30.10,NNE,22,0.0,0.0,83,0.00,,,-99.99,Weather View 32 v60,2013-03-06 04:35:00,
2013-03-05 23:40:00,31.0,26.7,30.10,NNE,22,0.0,0.0,84,0.00,,,-99.99,Weather View 32 v60,2013-03-06 04:40:00,
2013-03-05 23:45:00,31.0,26.4,30.10,NNE,22,0.0,0.0,83,0.00,,,-99.99,Weather View 32 v60,2013-03-06 04:45:00,
2013-03-05 23:50:00,31.0,27.9,30.09,NNE,22,0.0,3.0,88,0.00,,,-99.99,Weather View 32 v60,2013-03-06 04:50:00,
2013-03-05 23:55:00,30.0,25.2,30.10,NNE,22,0.0,0.0,82,0.00,,,-99.99,Weather View 32 v60,2013-03-06 04:55:00,